createdAt,value
2022-11-16T00:02:12.288Z,47.07
2022-11-16T00:04:38.971Z,46.92
2022-11-16T00:07:05.561Z,46.89
2022-11-16T00:09:32.447Z,46.73
2022-11-16T00:12:00.001Z,46.78
2022-11-16T00:14:27.591Z,46.64
2022-11-16T00:16:53.991Z,46.76
2022-11-16T00:19:20.361Z,46.49
2022-11-16T00:21:46.956Z,46.40
2022-11-16T00:24:14.288Z,46.41
2022-11-16T00:26:40.793Z,46.35
2022-11-16T00:29:07.259Z,46.39
2022-11-16T00:31:33.595Z,46.33
2022-11-16T00:33:59.927Z,46.42
2022-11-16T00:36:26.303Z,46.41
2022-11-16T00:38:55.703Z,46.43
2022-11-16T00:41:22.169Z,46.32
2022-11-16T00:43:48.777Z,46.17
2022-11-16T00:46:15.201Z,46.34
2022-11-16T00:48:41.632Z,46.43
2022-11-16T00:51:08.092Z,46.26
2022-11-16T00:53:35.172Z,45.92
2022-11-16T00:56:01.507Z,46.21
2022-11-16T00:58:28.189Z,46.36
2022-11-16T01:00:54.808Z,46.38
2022-11-16T01:03:21.243Z,46.31
2022-11-16T01:05:47.622Z,45.94
2022-11-16T01:08:14.097Z,46.01
2022-11-16T01:10:41.159Z,46.06
2022-11-16T01:13:07.757Z,45.91
2022-11-16T01:15:34.106Z,45.77
2022-11-16T01:18:00.468Z,45.83
2022-11-16T01:20:28.120Z,45.70
2022-11-16T01:22:54.575Z,45.40
2022-11-16T01:25:21.121Z,45.31
2022-11-16T01:27:47.561Z,45.46
2022-11-16T01:30:14.437Z,45.40
2022-11-16T01:32:40.835Z,45.41
2022-11-16T01:35:07.562Z,45.35
2022-11-16T01:37:34.136Z,45.54
2022-11-16T01:40:00.698Z,45.31
2022-11-16T01:42:27.826Z,45.20
2022-11-16T01:45:01.897Z,45.37
2022-11-16T01:47:28.661Z,45.48
2022-11-16T01:49:58.463Z,45.59
2022-11-16T01:52:26.745Z,45.63
2022-11-16T01:54:54.193Z,45.57
2022-11-16T01:57:23.408Z,45.58
2022-11-16T01:59:52.646Z,45.53
2022-11-16T02:02:19.186Z,45.55
2022-11-16T02:04:47.659Z,45.68
2022-11-16T02:07:29.461Z,45.62
2022-11-16T02:10:05.083Z,45.67
2022-11-16T02:12:50.345Z,45.67
2022-11-16T02:15:27.155Z,45.88
2022-11-16T02:18:08.616Z,45.76
2022-11-16T02:20:43.822Z,45.70
2022-11-16T02:23:10.168Z,45.73
2022-11-16T02:25:36.632Z,45.64
2022-11-16T02:28:23.227Z,45.66
2022-11-16T02:30:52.517Z,45.64
2022-11-16T02:33:22.102Z,45.51
2022-11-16T02:35:50.776Z,45.55
2022-11-16T02:38:25.192Z,45.59
2022-11-16T02:40:53.685Z,45.56
2022-11-16T02:43:26.496Z,45.61
2022-11-16T02:45:55.416Z,45.53
2022-11-16T02:48:24.822Z,45.46
2022-11-16T02:50:52.831Z,45.50
2022-11-16T02:53:23.680Z,45.35
2022-11-16T02:55:50.273Z,45.35
2022-11-16T02:58:26.021Z,45.29
2022-11-16T03:01:00.397Z,45.34
2022-11-16T03:03:42.131Z,45.53
2022-11-16T03:06:16.476Z,45.71
2022-11-16T03:08:44.925Z,46.32
2022-11-16T03:11:30.526Z,46.68
2022-11-16T03:14:02.553Z,46.50
2022-11-16T03:16:40.698Z,46.52
2022-11-16T03:19:09.495Z,46.20
2022-11-16T03:21:54.443Z,46.17
2022-11-16T03:24:20.995Z,46.04
2022-11-16T03:26:51.392Z,46.13
2022-11-16T03:29:22.933Z,46.04
2022-11-16T03:31:52.495Z,46.08
2022-11-16T03:34:20.702Z,46.09
2022-11-16T03:36:48.647Z,46.06
2022-11-16T03:39:20.189Z,46.05
2022-11-16T03:41:47.778Z,45.99
2022-11-16T03:44:15.171Z,45.92
2022-11-16T03:46:43.007Z,45.94
2022-11-16T03:49:09.369Z,45.86
2022-11-16T03:51:36.016Z,45.98
2022-11-16T03:54:02.440Z,45.79
2022-11-16T03:56:28.908Z,45.88
2022-11-16T03:58:55.261Z,45.77
2022-11-16T04:01:21.698Z,45.83
2022-11-16T04:03:48.098Z,45.75
2022-11-16T04:06:33.378Z,45.62
2022-11-16T04:09:18.227Z,45.64
2022-11-16T04:12:03.041Z,45.62
2022-11-16T04:14:48.037Z,45.74
2022-11-16T04:17:33.800Z,45.69
2022-11-16T04:20:18.589Z,45.79
2022-11-16T04:23:23.752Z,45.82
2022-11-16T04:25:51.087Z,45.63
2022-11-16T04:28:19.686Z,45.71
2022-11-16T04:31:09.392Z,45.67
2022-11-16T04:33:54.154Z,45.86
2022-11-16T04:36:39.528Z,45.77
2022-11-16T04:39:06.118Z,45.84
2022-11-16T04:41:51.220Z,45.69
2022-11-16T04:44:17.785Z,45.64
2022-11-16T04:47:02.863Z,45.65
2022-11-16T04:49:29.213Z,45.50
2022-11-16T04:51:55.658Z,45.57
2022-11-16T04:54:22.168Z,45.47
2022-11-16T04:56:48.560Z,45.40
2022-11-16T04:59:14.972Z,45.35
2022-11-16T05:01:59.901Z,45.24
2022-11-16T05:04:26.246Z,44.92
2022-11-16T05:06:52.627Z,45.15
2022-11-16T05:09:19.040Z,44.96
2022-11-16T05:11:45.463Z,44.98
2022-11-16T05:14:11.920Z,44.99
2022-11-16T05:16:38.350Z,44.66
2022-11-16T05:19:23.532Z,44.63
2022-11-16T05:21:49.968Z,44.67
2022-11-16T05:24:34.769Z,44.72
2022-11-16T05:27:01.952Z,44.61
2022-11-16T05:29:28.322Z,44.66
2022-11-16T05:31:54.789Z,44.72
2022-11-16T05:34:21.188Z,44.60
2022-11-16T05:36:47.621Z,44.56
2022-11-16T05:39:14.119Z,44.72
2022-11-16T05:41:40.529Z,44.68
2022-11-16T05:44:06.872Z,44.71
2022-11-16T05:46:33.296Z,44.62
2022-11-16T05:48:59.820Z,44.66
2022-11-16T05:51:26.271Z,44.53
2022-11-16T05:53:52.662Z,44.52
2022-11-16T05:56:19.095Z,44.48
2022-11-16T05:58:46.232Z,44.65
2022-11-16T06:01:12.627Z,44.63
2022-11-16T06:03:39.065Z,44.51
2022-11-16T06:06:05.547Z,44.43
2022-11-16T06:08:32.348Z,44.57
2022-11-16T06:11:05.656Z,44.61
2022-11-16T06:13:32.391Z,44.46
2022-11-16T06:15:58.980Z,44.38
2022-11-16T06:18:25.464Z,44.37
2022-11-16T06:20:52.230Z,44.30
2022-11-16T06:23:18.688Z,44.25
2022-11-16T06:25:45.095Z,44.21
2022-11-16T06:28:11.550Z,44.13
2022-11-16T06:30:38.456Z,44.05
2022-11-16T06:33:05.371Z,44.08
2022-11-16T06:35:32.101Z,43.83
2022-11-16T06:37:58.799Z,43.93
2022-11-16T06:40:25.702Z,44.04
2022-11-16T06:42:52.185Z,44.00
2022-11-16T06:45:18.530Z,44.04
2022-11-16T06:47:45.027Z,43.94
2022-11-16T06:50:11.432Z,43.88
2022-11-16T06:52:37.801Z,43.74
2022-11-16T06:55:04.378Z,43.71
2022-11-16T06:57:30.728Z,44.11
2022-11-16T06:59:57.541Z,44.38
2022-11-16T07:02:23.962Z,44.89
2022-11-16T07:04:50.309Z,45.21
2022-11-16T07:07:16.798Z,45.26
2022-11-16T07:09:44.569Z,44.59
2022-11-16T07:12:10.987Z,44.38
2022-11-16T07:14:37.453Z,43.96
2022-11-16T07:17:09.156Z,43.71
2022-11-16T07:19:36.809Z,43.66
2022-11-16T07:22:04.226Z,43.89
2022-11-16T07:24:30.738Z,44.07
2022-11-16T07:26:57.344Z,44.13
2022-11-16T07:29:24.581Z,44.00
2022-11-16T07:31:51.142Z,44.10
2022-11-16T07:34:17.629Z,44.00
2022-11-16T07:36:44.243Z,43.88
2022-11-16T07:39:10.672Z,43.78
2022-11-16T07:41:38.492Z,43.84
2022-11-16T07:44:09.535Z,43.93
2022-11-16T07:46:46.726Z,43.89
2022-11-16T07:49:15.115Z,43.75
2022-11-16T07:51:41.563Z,43.69
2022-11-16T07:54:08.274Z,43.54
2022-11-16T07:56:34.777Z,43.48
2022-11-16T07:59:01.566Z,43.52
2022-11-16T08:01:27.954Z,43.59
2022-11-16T08:03:54.489Z,43.22
2022-11-16T08:06:22.879Z,43.25
2022-11-16T08:08:52.432Z,43.31
2022-11-16T08:11:23.583Z,43.14
2022-11-16T08:13:49.965Z,43.15
2022-11-16T08:16:17.569Z,43.20
2022-11-16T08:18:44.023Z,43.31
2022-11-16T08:21:11.939Z,43.18
2022-11-16T08:23:40.298Z,43.21
2022-11-16T08:26:07.930Z,43.04
2022-11-16T08:28:34.634Z,43.04
2022-11-16T08:31:07.632Z,43.11
2022-11-16T08:33:34.002Z,43.19
2022-11-16T08:36:07.072Z,43.03
2022-11-16T08:38:36.062Z,43.10
2022-11-16T08:41:02.654Z,43.13
2022-11-16T08:43:31.024Z,43.16
2022-11-16T08:45:58.342Z,42.99
2022-11-16T08:48:24.781Z,43.14
2022-11-16T08:51:15.990Z,42.89
2022-11-16T08:53:37.478Z,42.84
2022-11-16T08:56:05.353Z,42.88
2022-11-16T08:58:32.083Z,42.83
2022-11-16T09:00:58.596Z,42.86
2022-11-16T09:03:25.045Z,42.68
2022-11-16T09:05:52.488Z,42.71
2022-11-16T09:08:18.834Z,42.73
2022-11-16T09:10:45.191Z,42.94
2022-11-16T09:13:11.528Z,42.90
2022-11-16T09:15:38.020Z,42.81
2022-11-16T09:18:04.421Z,42.83
2022-11-16T09:20:30.792Z,42.82
2022-11-16T09:22:57.317Z,42.68
2022-11-16T09:25:23.661Z,42.50
2022-11-16T09:27:50.036Z,42.54
2022-11-16T09:30:17.536Z,42.69
2022-11-16T09:32:43.904Z,42.66
2022-11-16T09:35:10.261Z,42.65
2022-11-16T09:37:36.622Z,42.60
2022-11-16T09:40:03.488Z,42.69
2022-11-16T09:42:45.012Z,42.63
2022-11-16T09:45:17.572Z,42.56
2022-11-16T09:47:49.094Z,42.41
2022-11-16T09:50:21.595Z,42.30
2022-11-16T09:52:49.878Z,42.29
2022-11-16T09:55:24.319Z,42.30
2022-11-16T09:57:52.501Z,42.14
2022-11-16T10:00:22.712Z,42.13
2022-11-16T10:03:02.587Z,41.99
2022-11-16T10:05:47.675Z,42.08
2022-11-16T10:08:33.503Z,41.94
2022-11-16T10:11:06.562Z,41.96
2022-11-16T10:13:48.159Z,41.95
2022-11-16T10:16:20.769Z,41.97
2022-11-16T10:18:53.884Z,41.99
2022-11-16T10:21:30.103Z,41.65
2022-11-16T10:24:05.560Z,41.77
2022-11-16T10:26:41.271Z,41.79
2022-11-16T10:29:36.950Z,41.73
2022-11-16T10:32:28.271Z,41.58
2022-11-16T10:34:56.332Z,41.61
2022-11-16T10:37:28.181Z,41.37
2022-11-16T10:39:54.636Z,41.43
2022-11-16T10:42:30.898Z,41.47
2022-11-16T10:45:02.721Z,41.29
2022-11-16T10:47:36.820Z,41.41
2022-11-16T10:50:14.430Z,41.49
2022-11-16T10:52:40.799Z,41.39
2022-11-16T10:55:07.382Z,41.53
2022-11-16T10:57:53.669Z,41.34
2022-11-16T11:00:55.563Z,41.32
2022-11-16T11:03:30.317Z,41.29
2022-11-16T11:05:56.842Z,41.20
2022-11-16T11:08:30.594Z,41.36
2022-11-16T11:11:01.586Z,41.34
2022-11-16T11:13:28.064Z,41.05
2022-11-16T11:16:13.232Z,41.21
2022-11-16T11:18:39.590Z,41.10
2022-11-16T11:21:07.462Z,41.09
2022-11-16T11:23:51.268Z,40.98
2022-11-16T11:26:30.564Z,40.99
2022-11-16T11:29:01.920Z,40.90
2022-11-16T11:31:54.542Z,40.95
2022-11-16T11:34:26.102Z,40.94
2022-11-16T11:36:52.450Z,41.03
2022-11-16T11:39:19.009Z,41.00
2022-11-16T11:41:46.437Z,40.91
2022-11-16T11:44:12.779Z,40.95
2022-11-16T11:47:23.630Z,40.95
2022-11-16T11:49:34.680Z,40.97
2022-11-16T11:52:17.184Z,40.99
2022-11-16T11:54:46.753Z,41.00
2022-11-16T11:57:20.627Z,40.93
2022-11-16T11:59:47.119Z,40.98
2022-11-16T12:02:16.295Z,41.09
2022-11-16T12:05:10.328Z,40.82
2022-11-16T12:07:39.647Z,40.75
2022-11-16T12:10:29.001Z,40.74
2022-11-16T12:13:03.646Z,40.63
2022-11-16T12:15:38.976Z,40.70
2022-11-16T12:18:11.413Z,40.63
2022-11-16T12:20:40.990Z,40.63
2022-11-16T12:23:26.197Z,40.69
2022-11-16T12:26:11.462Z,40.60
2022-11-16T12:28:37.916Z,40.65
2022-11-16T12:31:16.738Z,40.46
2022-11-16T12:33:48.081Z,40.55
2022-11-16T12:36:17.492Z,40.67
2022-11-16T12:38:49.906Z,40.59
2022-11-16T12:41:35.247Z,40.73
2022-11-16T12:44:02.076Z,40.77
2022-11-16T12:46:47.337Z,40.49
2022-11-16T12:49:27.269Z,40.50
2022-11-16T12:52:19.900Z,40.46
2022-11-16T12:55:25.374Z,40.50
2022-11-16T12:57:57.471Z,40.56
2022-11-16T13:00:23.825Z,40.56
2022-11-16T13:02:53.431Z,40.66
2022-11-16T13:05:21.674Z,40.50
2022-11-16T13:07:50.524Z,40.47
2022-11-16T13:10:20.105Z,40.59
2022-11-16T13:12:49.398Z,40.53
2022-11-16T13:15:19.821Z,40.63
2022-11-16T13:17:50.128Z,40.47
2022-11-16T13:20:22.719Z,40.40
2022-11-16T13:23:07.810Z,40.49
2022-11-16T13:25:51.279Z,40.52
2022-11-16T13:28:23.459Z,40.49
2022-11-16T13:31:04.572Z,40.49
2022-11-16T13:33:41.705Z,40.49
2022-11-16T13:36:49.253Z,40.48
2022-11-16T13:39:21.897Z,40.42
2022-11-16T13:41:50.435Z,40.47
2022-11-16T13:44:17.722Z,40.50
2022-11-16T13:46:55.870Z,40.45
2022-11-16T13:49:36.673Z,40.28
2022-11-16T13:52:22.596Z,40.30
2022-11-16T13:54:53.063Z,40.30
2022-11-16T13:57:31.255Z,40.20
2022-11-16T14:00:00.691Z,40.14
2022-11-16T14:02:39.304Z,40.31
2022-11-16T14:05:26.092Z,40.29
2022-11-16T14:07:52.473Z,40.30
2022-11-16T14:10:39.132Z,40.37
2022-11-16T14:13:06.345Z,40.47
2022-11-16T14:15:34.496Z,40.48
2022-11-16T14:18:02.322Z,40.36
2022-11-16T14:20:38.136Z,40.37
2022-11-16T14:23:04.473Z,40.34
2022-11-16T14:25:36.832Z,40.45
2022-11-16T14:28:23.457Z,40.46
2022-11-16T14:31:13.240Z,40.35
2022-11-16T14:33:39.621Z,40.35
2022-11-16T14:36:07.613Z,40.47
2022-11-16T14:38:35.234Z,40.38
2022-11-16T14:41:02.967Z,40.44
2022-11-16T14:43:33.106Z,40.43
2022-11-16T14:46:07.370Z,40.40
2022-11-16T14:48:34.976Z,40.45
2022-11-16T14:51:13.171Z,40.40
2022-11-16T14:53:41.669Z,40.32
2022-11-16T14:56:09.851Z,40.35
2022-11-16T14:58:36.549Z,40.39
2022-11-16T15:01:04.209Z,40.28
2022-11-16T15:03:34.419Z,40.27
2022-11-16T15:06:01.963Z,40.20
2022-11-16T15:08:32.623Z,40.21
2022-11-16T15:10:59.131Z,40.16
2022-11-16T15:13:25.642Z,40.24
2022-11-16T15:16:08.234Z,40.22
2022-11-16T15:18:34.618Z,40.20
2022-11-16T15:21:00.986Z,40.16
2022-11-16T15:23:30.629Z,40.09
2022-11-16T15:26:00.077Z,40.05
2022-11-16T15:28:28.653Z,40.13
2022-11-16T15:30:57.020Z,40.05
2022-11-16T15:33:29.630Z,40.05
2022-11-16T15:35:56.512Z,39.98
2022-11-16T15:38:24.264Z,39.91
2022-11-16T15:40:52.509Z,39.75
2022-11-16T15:43:19.951Z,39.88
2022-11-16T15:45:46.810Z,39.71
2022-11-16T15:48:17.764Z,39.66
2022-11-16T15:51:04.863Z,39.82
2022-11-16T15:53:37.048Z,39.66
2022-11-16T15:56:06.162Z,39.55
2022-11-16T15:58:36.245Z,39.57
2022-11-16T16:01:02.885Z,39.59
2022-11-16T16:03:31.768Z,39.75
2022-11-16T16:05:58.573Z,39.70
2022-11-16T16:08:28.030Z,39.68
2022-11-16T16:11:10.554Z,39.77
2022-11-16T16:13:41.702Z,39.80
2022-11-16T16:16:11.119Z,39.73
2022-11-16T16:18:44.690Z,39.71
2022-11-16T16:21:12.430Z,39.82
2022-11-16T16:23:52.072Z,39.71
2022-11-16T16:26:18.671Z,39.71
2022-11-16T16:28:45.551Z,39.70
2022-11-16T16:31:12.381Z,39.82
2022-11-16T16:33:38.918Z,39.86
2022-11-16T16:36:05.626Z,39.92
2022-11-16T16:38:31.994Z,39.86
2022-11-16T16:41:02.565Z,39.80
2022-11-16T16:43:29.251Z,39.70
2022-11-16T16:45:55.673Z,39.75
2022-11-16T16:48:22.131Z,39.78
2022-11-16T16:50:48.484Z,39.69
2022-11-16T16:53:15.051Z,39.78
2022-11-16T16:55:42.811Z,39.79
2022-11-16T16:58:12.489Z,39.79
2022-11-16T17:00:39.045Z,39.83
2022-11-16T17:03:05.396Z,39.78
2022-11-16T17:05:33.905Z,39.79
2022-11-16T17:08:00.821Z,39.87
2022-11-16T17:10:27.191Z,39.77
2022-11-16T17:12:54.094Z,39.79
2022-11-16T17:15:20.444Z,39.61
2022-11-16T17:17:46.906Z,39.55
2022-11-16T17:20:13.443Z,39.51
2022-11-16T17:22:41.798Z,39.52
2022-11-16T17:25:08.676Z,39.55
2022-11-16T17:27:35.042Z,39.48
2022-11-16T17:30:01.444Z,39.45
2022-11-16T17:32:27.776Z,39.28
2022-11-16T17:34:54.150Z,39.26
2022-11-16T17:37:20.535Z,39.32
2022-11-16T17:39:46.900Z,39.28
2022-11-16T17:42:13.246Z,39.18
2022-11-16T17:44:39.613Z,39.21
2022-11-16T17:47:07.408Z,39.18
2022-11-16T17:49:33.780Z,39.36
2022-11-16T17:52:01.308Z,39.36
2022-11-16T17:54:27.685Z,39.18
2022-11-16T17:56:54.122Z,39.16
2022-11-16T17:59:22.780Z,39.00
2022-11-16T18:01:52.849Z,39.03
2022-11-16T18:04:19.270Z,39.04
2022-11-16T18:06:45.741Z,39.06
2022-11-16T18:09:12.172Z,39.02
2022-11-16T18:11:39.755Z,39.00
2022-11-16T18:14:06.191Z,39.01
2022-11-16T18:16:34.688Z,38.78
2022-11-16T18:19:02.348Z,38.84
2022-11-16T18:21:29.375Z,38.80
2022-11-16T18:23:55.850Z,38.77
2022-11-16T18:26:23.714Z,38.80
2022-11-16T18:28:51.009Z,38.72
2022-11-16T18:31:18.488Z,38.83
2022-11-16T18:33:44.918Z,38.83
2022-11-16T18:36:12.277Z,38.88
2022-11-16T18:38:38.900Z,38.85
2022-11-16T18:41:11.529Z,39.00
2022-11-16T18:43:41.698Z,39.01
2022-11-16T18:46:08.400Z,38.95
2022-11-16T18:48:34.745Z,38.86
2022-11-16T18:51:02.117Z,38.86
2022-11-16T18:53:29.230Z,38.78
2022-11-16T18:55:58.129Z,38.84
2022-11-16T18:58:49.384Z,38.78
2022-11-16T19:01:13.528Z,39.04
2022-11-16T19:03:40.157Z,38.85
2022-11-16T19:06:10.173Z,38.72
2022-11-16T19:08:37.469Z,38.84
2022-11-16T19:11:14.581Z,38.90
2022-11-16T19:13:41.699Z,38.82
2022-11-16T19:16:08.801Z,38.76
2022-11-16T19:18:35.777Z,38.76
2022-11-16T19:21:03.139Z,38.76
2022-11-16T19:23:29.517Z,38.50
2022-11-16T19:25:59.657Z,38.62
2022-11-16T19:28:26.045Z,38.56
2022-11-16T19:30:52.447Z,38.60
2022-11-16T19:33:18.789Z,38.55
2022-11-16T19:35:45.191Z,38.44
2022-11-16T19:38:11.617Z,38.38
2022-11-16T19:40:39.470Z,38.37
2022-11-16T19:43:06.091Z,38.46
2022-11-16T19:45:32.445Z,38.44
2022-11-16T19:47:58.810Z,38.34
2022-11-16T19:50:25.244Z,38.55
2022-11-16T19:52:51.748Z,38.47
2022-11-16T19:55:18.150Z,38.61
2022-11-16T19:57:44.569Z,38.57
2022-11-16T20:00:11.283Z,38.44
2022-11-16T20:02:38.667Z,38.37
2022-11-16T20:05:05.265Z,38.47
2022-11-16T20:07:31.800Z,38.35
2022-11-16T20:09:58.442Z,38.29
2022-11-16T20:12:24.858Z,38.44
2022-11-16T20:14:51.270Z,38.27
2022-11-16T20:17:17.633Z,38.27
2022-11-16T20:19:43.975Z,38.23
2022-11-16T20:22:10.925Z,38.26
2022-11-16T20:24:37.353Z,38.36
2022-11-16T20:27:03.739Z,38.28
2022-11-16T20:29:30.113Z,38.21
2022-11-16T20:31:56.480Z,38.31
2022-11-16T20:34:22.943Z,38.16
2022-11-16T20:36:50.878Z,38.16
2022-11-16T20:39:19.188Z,38.02
2022-11-16T20:41:45.987Z,37.97
2022-11-16T20:44:22.280Z,37.93
2022-11-16T20:46:50.602Z,38.02
2022-11-16T20:49:16.968Z,37.80
2022-11-16T20:51:43.341Z,37.95
2022-11-16T20:54:09.732Z,38.03
2022-11-16T20:56:36.152Z,37.89
2022-11-16T20:59:02.562Z,37.95
2022-11-16T21:01:31.757Z,37.98
2022-11-16T21:03:59.407Z,38.10
2022-11-16T21:06:26.285Z,38.07
2022-11-16T21:08:53.112Z,38.08
2022-11-16T21:11:21.285Z,37.95
2022-11-16T21:14:06.503Z,37.88
2022-11-16T21:16:33.833Z,38.00
2022-11-16T21:19:00.790Z,38.00
2022-11-16T21:21:27.228Z,37.89
2022-11-16T21:23:54.934Z,38.08
2022-11-16T21:26:22.648Z,38.06
2022-11-16T21:28:49.191Z,38.08
2022-11-16T21:31:17.683Z,38.15
2022-11-16T21:33:44.627Z,37.96
2022-11-16T21:36:12.402Z,37.95
2022-11-16T21:38:38.960Z,39.11
2022-11-16T21:41:06.387Z,39.56
2022-11-16T21:43:40.258Z,39.83
2022-11-16T21:46:07.972Z,39.99
2022-11-16T21:48:34.563Z,40.37
2022-11-16T21:51:02.378Z,40.04
2022-11-16T21:53:28.914Z,40.43
2022-11-16T21:55:55.409Z,40.26
2022-11-16T21:58:21.844Z,40.70
2022-11-16T22:00:48.497Z,40.70
2022-11-16T22:03:15.161Z,41.03
2022-11-16T22:05:59.999Z,41.25
2022-11-16T22:08:26.475Z,41.35
2022-11-16T22:10:53.168Z,41.25
2022-11-16T22:13:20.176Z,41.45
2022-11-16T22:15:46.681Z,41.38
2022-11-16T22:18:13.533Z,41.56
2022-11-16T22:20:40.063Z,41.55
2022-11-16T22:23:06.439Z,41.28
2022-11-16T22:25:33.014Z,41.35
2022-11-16T22:28:19.827Z,41.55
2022-11-16T22:30:51.228Z,41.82
2022-11-16T22:33:18.273Z,41.90
2022-11-16T22:35:46.712Z,41.87
2022-11-16T22:38:13.183Z,42.12
2022-11-16T22:40:39.631Z,42.20
2022-11-16T22:43:06.131Z,42.16
2022-11-16T22:45:32.554Z,42.08
2022-11-16T22:47:59.019Z,41.93
2022-11-16T22:50:25.507Z,42.20
2022-11-16T22:52:51.893Z,42.21
2022-11-16T22:55:18.343Z,42.26
2022-11-16T22:57:44.818Z,42.39
2022-11-16T23:00:12.233Z,42.23
2022-11-16T23:02:38.652Z,42.38
2022-11-16T23:05:05.270Z,42.67
2022-11-16T23:07:31.937Z,43.10
2022-11-16T23:09:58.471Z,43.42
2022-11-16T23:12:43.502Z,43.44
2022-11-16T23:15:30.851Z,40.74
2022-11-16T23:17:57.699Z,40.02
2022-11-16T23:20:42.528Z,39.45
2022-11-16T23:23:37.536Z,39.50
2022-11-16T23:26:24.117Z,39.04
2022-11-16T23:28:50.530Z,39.74
2022-11-16T23:31:16.996Z,40.32
2022-11-16T23:33:46.381Z,40.62
2022-11-16T23:36:13.010Z,40.83
2022-11-16T23:38:39.482Z,40.90
2022-11-16T23:41:24.826Z,40.94
2022-11-16T23:44:00.201Z,40.79
2022-11-16T23:46:30.773Z,40.69
2022-11-16T23:48:57.659Z,40.58
2022-11-16T23:51:24.562Z,40.39
2022-11-16T23:53:51.774Z,40.31
2022-11-16T23:56:18.697Z,40.26
2022-11-16T23:58:45.170Z,40.22
